createdAt,value
2022-11-03T00:00:59.873Z,101666.44
2022-11-03T00:05:21.246Z,101673.50
2022-11-03T00:09:23.953Z,101676.66
2022-11-03T00:13:25.372Z,101671.44
2022-11-03T00:17:26.784Z,101669.72
2022-11-03T00:21:29.023Z,101666.63
2022-11-03T00:25:30.378Z,101661.47
2022-11-03T00:29:31.771Z,101659.84
2022-11-03T00:33:33.616Z,101659.63
2022-11-03T00:37:35.009Z,101661.63
2022-11-03T00:41:37.525Z,101652.19
2022-11-03T00:45:38.878Z,101643.81
2022-11-03T00:49:40.263Z,101634.34
2022-11-03T00:53:50.855Z,101632.13
2022-11-03T00:57:53.333Z,101630.19
2022-11-03T01:01:54.792Z,101643.31
2022-11-03T01:06:14.997Z,101643.31
2022-11-03T01:10:16.510Z,101632.84
2022-11-03T01:14:17.997Z,101631.31
2022-11-03T01:18:19.438Z,101633.66
2022-11-03T01:22:22.631Z,101629.09
2022-11-03T01:26:24.017Z,101623.06
2022-11-03T01:30:25.475Z,101615.22
2022-11-03T01:34:27.046Z,101621.94
2022-11-03T01:38:33.024Z,101624.69
2022-11-03T01:42:34.453Z,101619.47
2022-11-03T01:47:04.988Z,101620.50
2022-11-03T01:51:08.124Z,101622.63
2022-11-03T01:55:15.873Z,101619.94
2022-11-03T01:59:20.747Z,101630.34
2022-11-03T02:03:23.833Z,101630.44
2022-11-03T02:07:49.467Z,101620.69
2022-11-03T02:12:08.995Z,101615.78
2022-11-03T02:16:10.446Z,101609.16
2022-11-03T02:20:22.329Z,101594.28
2022-11-03T02:24:35.622Z,101592.66
2022-11-03T02:28:37.360Z,101591.91
2022-11-03T02:32:48.328Z,101579.16
2022-11-03T02:37:03.677Z,101589.50
2022-11-03T02:41:08.483Z,101588.31
2022-11-03T02:45:17.334Z,101585.75
2022-11-03T02:49:19.119Z,101586.34
2022-11-03T02:53:20.492Z,101579.66
2022-11-03T02:57:27.927Z,101573.72
2022-11-03T03:01:46.855Z,101561.72
2022-11-03T03:05:52.742Z,101562.19
2022-11-03T03:09:59.877Z,101562.19
2022-11-03T03:14:01.345Z,101552.44
2022-11-03T03:18:19.972Z,101550.28
2022-11-03T03:22:28.984Z,101556.38
2022-11-03T03:26:35.481Z,101551.19
2022-11-03T03:30:38.807Z,101555.25
2022-11-03T03:34:43.360Z,101546.53
2022-11-03T03:38:49.887Z,101541.53
2022-11-03T03:42:51.994Z,101525.84
2022-11-03T03:47:09.650Z,101527.69
2022-11-03T03:51:13.124Z,101532.59
2022-11-03T03:55:17.672Z,101533.66
2022-11-03T03:59:19.114Z,101526.66
2022-11-03T04:03:23.438Z,101531.88
2022-11-03T04:07:43.973Z,101522.63
2022-11-03T04:12:04.092Z,101523.31
2022-11-03T04:16:24.209Z,101521.75
2022-11-03T04:20:44.691Z,101519.00
2022-11-03T04:24:48.202Z,101524.78
2022-11-03T04:28:52.166Z,101521.16
2022-11-03T04:32:54.464Z,101512.13
2022-11-03T04:36:56.238Z,101502.19
2022-11-03T04:40:58.888Z,101493.78
2022-11-03T04:45:02.267Z,101486.28
2022-11-03T04:49:05.807Z,101486.28
2022-11-03T04:53:14.486Z,101494.63
2022-11-03T04:57:17.312Z,101492.41
2022-11-03T05:01:24.347Z,101490.88
2022-11-03T05:05:26.798Z,101477.84
2022-11-03T05:09:30.167Z,101482.19
2022-11-03T05:13:31.562Z,101480.22
2022-11-03T05:17:32.976Z,101471.56
2022-11-03T05:21:34.508Z,101464.75
2022-11-03T05:25:42.225Z,101462.88
2022-11-03T05:29:44.458Z,101448.66
2022-11-03T05:33:47.323Z,101448.84
2022-11-03T05:37:50.079Z,101453.31
2022-11-03T05:41:51.508Z,101446.59
2022-11-03T05:45:58.813Z,101442.84
2022-11-03T05:50:21.736Z,101439.09
2022-11-03T05:54:31.286Z,101439.28
2022-11-03T05:58:38.311Z,101438.06
2022-11-03T06:02:41.752Z,101437.47
2022-11-03T06:06:43.863Z,101433.91
2022-11-03T06:10:57.173Z,101436.44
2022-11-03T06:14:58.654Z,101438.47
2022-11-03T06:19:03.588Z,101442.25
2022-11-03T06:23:12.163Z,101450.88
2022-11-03T06:27:21.772Z,101448.19
2022-11-03T06:31:32.592Z,101446.59
2022-11-03T06:35:34.939Z,101447.50
2022-11-03T06:39:36.439Z,101446.28
2022-11-03T06:43:42.876Z,101450.13
2022-11-03T06:47:44.261Z,101441.59
2022-11-03T06:51:45.609Z,101443.75
2022-11-03T06:55:48.363Z,101432.84
2022-11-03T07:00:06.705Z,101433.53
2022-11-03T07:04:16.263Z,101425.03
2022-11-03T07:08:21.055Z,101412.94
2022-11-03T07:12:22.475Z,101399.59
2022-11-03T07:16:41.172Z,101416.69
2022-11-03T07:20:42.580Z,101417.44
2022-11-03T07:24:46.745Z,101415.69
2022-11-03T07:28:48.483Z,101425.47
2022-11-03T07:32:53.761Z,101422.97
2022-11-03T07:36:57.961Z,101418.84
2022-11-03T07:41:00.225Z,101418.16
2022-11-03T07:45:01.658Z,101412.63
2022-11-03T07:49:03.311Z,101404.63
2022-11-03T07:53:13.915Z,101397.06
2022-11-03T07:57:19.025Z,101396.25
2022-11-03T08:01:36.378Z,101383.13
2022-11-03T08:05:37.852Z,101384.75
2022-11-03T08:09:39.256Z,101384.66
2022-11-03T08:13:40.654Z,101376.22
2022-11-03T08:17:42.050Z,101375.16
2022-11-03T08:21:44.503Z,101364.28
2022-11-03T08:25:46.071Z,101358.81
2022-11-03T08:29:47.521Z,101348.22
2022-11-03T08:33:48.901Z,101344.47
2022-11-03T08:37:50.320Z,101339.66
2022-11-03T08:41:51.736Z,101324.22
2022-11-03T08:45:53.875Z,101329.59
2022-11-03T08:49:55.290Z,101322.03
2022-11-03T08:53:56.789Z,101312.31
2022-11-03T08:57:58.182Z,101310.09
2022-11-03T09:01:59.697Z,101307.41
2022-11-03T09:06:01.128Z,101298.41
2022-11-03T09:14:19.485Z,101302.13
2022-11-03T09:18:21.020Z,101288.34
2022-11-03T09:22:22.592Z,101280.97
2022-11-03T09:26:23.942Z,101271.28
2022-11-03T09:30:25.398Z,101264.41
2022-11-03T09:34:26.853Z,101257.25
2022-11-03T09:38:28.264Z,101255.59
2022-11-03T09:42:31.670Z,101240.50
2022-11-03T09:46:35.132Z,101238.94
2022-11-03T09:50:36.705Z,101231.72
2022-11-03T09:54:38.122Z,101232.63
2022-11-03T09:58:40.983Z,101234.47
2022-11-03T10:02:43.313Z,101222.53
2022-11-03T10:06:44.826Z,101215.41
2022-11-03T10:10:46.339Z,101208.44
2022-11-03T10:14:48.136Z,101209.06
2022-11-03T10:18:50.208Z,101198.81
2022-11-03T10:22:54.475Z,101181.66
2022-11-03T10:26:56.002Z,101175.81
2022-11-03T10:31:15.740Z,101183.50
2022-11-03T10:35:34.344Z,101179.09
2022-11-03T10:39:35.914Z,101166.91
2022-11-03T10:43:39.487Z,101158.88
2022-11-03T10:47:40.983Z,101157.06
2022-11-03T10:51:44.555Z,101149.38
2022-11-03T10:55:46.196Z,101138.03
2022-11-03T10:59:49.854Z,101131.97
2022-11-03T11:03:51.417Z,101121.66
2022-11-03T11:07:54.321Z,101120.69
2022-11-03T11:12:06.255Z,101114.53
2022-11-03T11:16:46.025Z,101107.78
2022-11-03T11:20:48.160Z,101105.00
2022-11-03T11:24:49.506Z,101093.09
2022-11-03T11:29:09.505Z,101078.56
2022-11-03T11:33:23.086Z,101077.41
2022-11-03T11:37:24.429Z,101067.91
2022-11-03T11:42:03.224Z,101056.00
2022-11-03T11:46:23.216Z,101052.03
2022-11-03T11:50:29.168Z,101049.78
2022-11-03T11:54:30.620Z,101034.00
2022-11-03T11:58:35.495Z,101030.50
2022-11-03T12:02:36.926Z,101031.94
2022-11-03T12:06:40.362Z,101030.94
2022-11-03T12:10:52.550Z,101021.13
2022-11-03T12:14:53.951Z,101016.66
2022-11-03T12:18:55.612Z,101009.19
2022-11-03T12:22:57.026Z,101006.25
2022-11-03T12:27:03.119Z,100996.78
2022-11-03T12:31:04.640Z,100990.00
2022-11-03T12:35:08.434Z,100985.97
2022-11-03T12:39:13.125Z,100983.84
2022-11-03T12:43:14.644Z,100971.34
2022-11-03T12:47:16.129Z,100974.34
2022-11-03T12:51:19.695Z,100972.25
2022-11-03T12:55:21.281Z,100968.19
2022-11-03T12:59:22.732Z,100961.75
2022-11-03T13:03:24.160Z,100951.13
2022-11-03T13:07:30.363Z,100937.72
2022-11-03T13:11:53.232Z,100927.41
2022-11-03T13:15:54.894Z,100913.81
2022-11-03T13:19:56.462Z,100910.03
2022-11-03T13:23:57.915Z,100902.47
2022-11-03T13:27:59.638Z,100893.41
2022-11-03T13:32:01.053Z,100888.50
2022-11-03T13:36:02.661Z,100879.91
2022-11-03T13:40:04.685Z,100877.13
2022-11-03T13:44:06.323Z,100858.41
2022-11-03T13:49:05.261Z,100846.44
2022-11-03T13:52:29.155Z,100842.19
2022-11-03T13:56:30.651Z,100823.31
2022-11-03T14:00:34.398Z,100824.81
2022-11-03T14:04:43.820Z,100821.09
2022-11-03T14:08:45.767Z,100828.88
2022-11-03T14:12:47.207Z,100818.31
2022-11-03T14:16:48.678Z,100815.56
2022-11-03T14:20:50.118Z,100811.19
2022-11-03T14:24:51.991Z,100801.31
2022-11-03T14:28:53.383Z,100790.41
2022-11-03T14:32:59.445Z,100787.50
2022-11-03T14:37:01.354Z,100784.34
2022-11-03T14:41:21.396Z,100782.63
2022-11-03T14:45:23.012Z,100764.41
2022-11-03T14:49:24.587Z,100755.81
2022-11-03T14:53:26.631Z,100747.53
2022-11-03T14:57:28.017Z,100743.09
2022-11-03T15:01:29.606Z,100734.50
2022-11-03T15:05:46.280Z,100724.94
2022-11-03T15:09:47.798Z,100715.06
2022-11-03T15:13:52.296Z,100704.72
2022-11-03T15:18:02.465Z,100707.16
2022-11-03T15:22:04.359Z,100695.97
2022-11-03T15:26:06.109Z,100686.84
2022-11-03T15:30:08.233Z,100688.75
2022-11-03T15:34:09.837Z,100688.53
2022-11-03T15:38:11.249Z,100678.50
2022-11-03T15:42:12.660Z,100663.06
2022-11-03T15:46:18.140Z,100656.88
2022-11-03T15:50:20.420Z,100647.88
2022-11-03T15:54:21.795Z,100648.72
2022-11-03T15:58:23.233Z,100635.19
2022-11-03T16:02:40.896Z,100620.59
2022-11-03T16:11:04.905Z,100602.06
2022-11-03T16:15:06.992Z,100591.56
2022-11-03T16:19:09.556Z,100580.41
2022-11-03T16:23:10.946Z,100573.75
2022-11-03T16:27:12.425Z,100567.78
2022-11-03T16:31:13.768Z,100572.22
2022-11-03T16:35:15.179Z,100559.75
2022-11-03T16:39:16.565Z,100561.94
2022-11-03T16:43:17.958Z,100546.78
2022-11-03T16:47:19.293Z,100540.66
2022-11-03T16:51:20.711Z,100532.41
2022-11-03T16:55:22.267Z,100535.38
2022-11-03T16:59:25.546Z,100525.63
2022-11-03T17:03:27.046Z,100526.16
2022-11-03T17:07:28.412Z,100507.97
2022-11-03T17:11:36.291Z,100508.47
2022-11-03T17:15:37.906Z,100492.94
2022-11-03T17:19:39.469Z,100498.47
2022-11-03T17:23:40.859Z,100497.22
2022-11-03T17:27:52.329Z,100502.03
2022-11-03T17:31:54.250Z,100499.25
2022-11-03T17:35:55.791Z,100490.94
2022-11-03T17:39:57.284Z,100485.59
2022-11-03T17:43:58.817Z,100483.31
2022-11-03T17:48:00.715Z,100466.38
2022-11-03T17:52:02.224Z,100465.81
2022-11-03T17:56:28.986Z,100454.72
2022-11-03T18:00:26.219Z,100444.50
2022-11-03T18:04:27.628Z,100436.78
2022-11-03T18:08:29.061Z,100425.56
2022-11-03T18:12:55.628Z,100416.22
2022-11-03T18:16:57.882Z,100405.53
2022-11-03T18:20:59.465Z,100399.16
2022-11-03T18:25:00.848Z,100371.22
2022-11-03T18:29:02.329Z,100369.25
2022-11-03T18:33:03.907Z,100352.28
2022-11-03T18:37:05.324Z,100332.94
2022-11-03T18:41:33.501Z,100323.13
2022-11-03T18:45:34.953Z,100315.13
2022-11-03T18:49:37.164Z,100307.91
2022-11-03T18:53:38.600Z,100282.25
2022-11-03T18:57:40.171Z,100280.09
2022-11-03T19:01:41.823Z,100276.69
2022-11-03T19:05:46.010Z,100259.28
2022-11-03T19:09:47.403Z,100256.00
2022-11-03T19:13:48.934Z,100262.28
2022-11-03T19:17:54.649Z,100263.31
2022-11-03T19:21:56.431Z,100254.28
2022-11-03T19:25:59.672Z,100251.28
2022-11-03T19:30:03.732Z,100240.72
2022-11-03T19:34:08.174Z,100223.72
2022-11-03T19:38:13.659Z,100229.91
2022-11-03T19:42:36.642Z,100219.69
2022-11-03T19:46:42.077Z,100206.22
2022-11-03T19:50:43.695Z,100201.41
2022-11-03T19:54:47.942Z,100194.41
2022-11-03T19:58:49.310Z,100182.44
2022-11-03T20:02:50.737Z,100173.72
2022-11-03T20:06:52.283Z,100165.84
2022-11-03T20:10:54.036Z,100158.53
2022-11-03T20:14:55.450Z,100163.03
2022-11-03T20:18:57.055Z,100175.31
2022-11-03T20:23:00.056Z,100168.00
2022-11-03T20:27:01.724Z,100156.84
2022-11-03T20:31:03.995Z,100142.53
2022-11-03T20:35:05.826Z,100156.97
2022-11-03T20:39:13.197Z,100156.47
2022-11-03T20:43:39.036Z,100143.22
2022-11-03T20:47:44.452Z,100147.59
2022-11-03T20:51:50.884Z,100131.53
2022-11-03T20:55:53.729Z,100124.63
2022-11-03T20:59:56.084Z,100141.34
2022-11-03T21:04:00.427Z,100137.72
2022-11-03T21:08:02.262Z,100131.38
2022-11-03T21:12:11.648Z,100128.69
2022-11-03T21:16:31.846Z,100118.66
2022-11-03T21:20:33.616Z,100119.09
2022-11-03T21:24:35.029Z,100119.59
2022-11-03T21:28:36.437Z,100108.47
2022-11-03T21:32:37.832Z,100107.44
2022-11-03T21:36:39.206Z,100105.88
2022-11-03T21:40:55.222Z,100091.56
2022-11-03T21:44:58.618Z,100074.50
2022-11-03T21:49:18.575Z,100087.72
2022-11-03T21:53:19.978Z,100076.31
2022-11-03T21:57:21.365Z,100074.56
2022-11-03T22:01:22.911Z,100067.84
2022-11-03T22:05:24.364Z,100077.91
2022-11-03T22:09:27.380Z,100075.00
2022-11-03T22:13:28.779Z,100077.66
2022-11-03T22:17:30.197Z,100074.84
2022-11-03T22:21:50.212Z,100078.84
2022-11-03T22:26:09.952Z,100077.63
2022-11-03T22:30:30.309Z,100056.94
2022-11-03T22:34:50.108Z,100053.31
2022-11-03T22:39:09.855Z,100061.69
2022-11-03T22:43:29.524Z,100061.75
2022-11-03T22:47:30.923Z,100048.38
2022-11-03T22:51:32.313Z,100033.91
2022-11-03T22:55:33.737Z,100036.72
2022-11-03T22:59:35.102Z,100028.00
2022-11-03T23:03:38.197Z,100034.25
2022-11-03T23:07:41.457Z,100041.38
2022-11-03T23:11:43.242Z,100033.63
2022-11-03T23:15:44.630Z,100034.13
2022-11-03T23:20:04.422Z,100022.53
2022-11-03T23:24:24.699Z,100026.31
2022-11-03T23:28:25.979Z,100014.63
2022-11-03T23:32:27.339Z,100008.00
2022-11-03T23:36:29.503Z,100005.53
2022-11-03T23:40:33.063Z,100010.84
2022-11-03T23:44:52.787Z,100002.84
2022-11-03T23:48:54.648Z,100008.91
2022-11-03T23:52:56.062Z,100008.91
2022-11-03T23:57:15.879Z,99996.19
